Time;durP1;ratioP1;P1;durP2;ratioP2;P2;SDS_P1;SDS_P2;PMS_P1;PMS_P2;Temp;Humidity;BMP_temperature;BMP_pressure;BME280_temperature;BME280_humidity;BME280_pressure;Samples;Min_cycle;Max_cycle;Signal;HPM_P1;HPM_P2
2023/08/12 00:01:11;;;;;;;0.20;0.20;;;;;;;21.24;81.35;99470.81;4862888;29;20049;-83
2023/08/12 00:03:38;;;;;;;0.20;0.20;;;;;;;21.16;81.78;99461.38;4841755;29;20058;-81
2023/08/12 00:06:06;;;;;;;0.20;0.20;;;;;;;21.17;81.82;99462.22;4858027;29;20460;-81
2023/08/12 00:08:33;;;;;;;0.20;0.20;;;;;;;21.15;81.99;99448.78;4841778;29;20062;-83
2023/08/12 00:11:00;;;;;;;0.20;0.20;;;;;;;21.19;81.76;99452.56;4858263;29;20129;-82
2023/08/12 00:13:27;;;;;;;0.30;0.30;;;;;;;21.19;82.16;99449.81;4858018;29;20169;-82
2023/08/12 00:15:54;;;;;;;0.20;0.20;;;;;;;21.13;82.37;99431.81;4841667;29;20118;-81
2023/08/12 00:18:22;;;;;;;0.22;0.22;;;;;;;21.16;82.07;99439.41;4857722;29;20089;-82
2023/08/12 00:20:49;;;;;;;0.20;0.20;;;;;;;21.15;82.33;99437.81;4858021;29;20062;-82
2023/08/12 00:23:17;;;;;;;0.30;0.30;;;;;;;21.12;82.76;99443.91;4857470;29;20425;-82
2023/08/12 00:25:45;;;;;;;0.20;0.20;;;;;;;21.10;82.90;99448.06;4857944;29;20102;-81
2023/08/12 00:28:12;;;;;;;0.20;0.20;;;;;;;21.08;82.91;99450.31;4810581;29;20157;-82
2023/08/12 00:30:41;;;;;;;0.20;0.20;;;;;;;21.07;83.20;99443.19;4841428;29;20080;-82
2023/08/12 00:33:08;;;;;;;0.20;0.20;;;;;;;21.05;83.37;99443.50;4857808;29;20536;-81
2023/08/12 00:35:35;;;;;;;0.20;0.20;;;;;;;21.01;83.51;99434.22;4858053;29;20049;-82
2023/08/12 00:38:02;;;;;;;0.20;0.20;;;;;;;21.01;83.20;99450.69;4857792;29;20057;-84
2023/08/12 00:40:30;;;;;;;0.20;0.20;;;;;;;20.95;83.59;99446.41;4840838;29;20060;-82
2023/08/12 00:42:57;;;;;;;0.20;0.20;;;;;;;20.97;83.92;99452.44;4857744;29;20542;-83
2023/08/12 00:45:25;;;;;;;0.20;0.20;;;;;;;20.92;84.23;99444.28;4857808;29;20060;-82
2023/08/12 00:47:53;;;;;;;0.30;0.30;;;;;;;20.91;84.28;99437.16;4810512;29;20068;-82
2023/08/12 00:50:20;;;;;;;0.20;0.20;;;;;;;20.84;84.52;99426.59;4844382;29;20129;-82
2023/08/12 00:52:48;;;;;;;0.20;0.20;;;;;;;20.82;84.95;99417.03;4844908;29;20046;-83
2023/08/12 00:55:16;;;;;;;0.20;0.20;;;;;;;20.78;85.23;99431.34;4860883;29;20423;-81
2023/08/12 00:57:44;;;;;;;0.30;0.30;;;;;;;20.77;85.22;99432.47;4844515;29;20516;-82
2023/08/12 01:00:13;;;;;;;0.20;0.20;;;;;;;20.76;85.49;99447.31;4860612;29;20054;-82
2023/08/12 01:02:45;;;;;;;0.20;0.20;;;;;;;20.69;85.90;99435.09;4829194;29;20057;-83
2023/08/12 01:05:12;;;;;;;0.20;0.20;;;;;;;20.67;86.29;99440.06;4844720;29;20439;-83
2023/08/12 01:07:42;;;;;;;0.20;0.20;;;;;;;20.62;86.33;99440.97;4844377;29;20113;-83
2023/08/12 01:10:15;;;;;;;0.20;0.20;;;;;;;20.62;86.73;99451.94;4860544;29;20054;-83
2023/08/12 01:13:09;;;;;;;0.20;0.20;;;;;;;20.62;86.76;99449.19;4847792;29;20053;-83
2023/08/12 01:15:37;;;;;;;0.20;0.20;;;;;;;20.57;87.09;99432.81;4861179;29;20053;-81
2023/08/12 01:18:05;;;;;;;0.22;0.22;;;;;;;20.54;87.14;99436.16;4813853;29;20410;-82
2023/08/12 01:20:32;;;;;;;0.30;0.30;;;;;;;20.53;87.88;99429.00;4844209;29;20068;-81
2023/08/12 01:23:10;;;;;;;0.20;0.20;;;;;;;20.51;88.36;99431.25;4828708;29;20084;-82
2023/08/12 01:25:37;;;;;;;0.30;0.30;;;;;;;20.47;88.51;99428.28;4829050;29;20076;-82
2023/08/12 01:28:05;;;;;;;0.20;0.20;;;;;;;20.43;88.39;99421.78;4860498;29;20061;-82
2023/08/12 01:30:35;;;;;;;0.30;0.30;;;;;;;20.37;88.90;99416.69;4843960;29;20046;-83
2023/08/12 01:33:15;;;;;;;0.30;0.30;;;;;;;20.36;88.89;99421.38;4844047;29;20057;-82
2023/08/12 01:35:47;;;;;;;0.20;0.20;;;;;;;20.31;89.39;99408.56;4860400;29;20135;-82
2023/08/12 01:38:15;;;;;;;0.30;0.30;;;;;;;20.27;89.38;99407.50;4844051;29;20076;-83
2023/08/12 01:40:43;;;;;;;0.30;0.30;;;;;;;20.23;89.86;99417.47;4828781;29;20065;-84
2023/08/12 01:43:11;;;;;;;0.20;0.20;;;;;;;20.21;90.34;99405.97;4843880;29;20458;-83
2023/08/12 01:45:38;;;;;;;0.20;0.20;;;;;;;20.19;90.37;99405.47;4844163;29;20144;-82
2023/08/12 01:48:07;;;;;;;0.28;0.28;;;;;;;20.19;90.96;99410.13;4860149;29;20050;-81
2023/08/12 01:50:34;;;;;;;0.20;0.20;;;;;;;20.15;90.91;99404.41;4843932;29;20060;-82
2023/08/12 01:53:02;;;;;;;0.30;0.30;;;;;;;20.13;91.14;99407.47;4860360;29;20053;-82
2023/08/12 01:55:29;;;;;;;0.30;0.30;;;;;;;20.10;91.14;99399.00;4828434;29;20137;-82
2023/08/12 01:57:56;;;;;;;0.30;0.30;;;;;;;20.09;91.05;99389.19;4828385;29;20433;-83
2023/08/12 02:00:23;;;;;;;0.20;0.20;;;;;;;20.13;91.07;99390.22;4843505;29;20511;-81
2023/08/12 02:02:50;;;;;;;0.30;0.30;;;;;;;20.11;91.00;99385.03;4864488;29;20197;-84
2023/08/12 02:05:18;;;;;;;0.20;0.20;;;;;;;20.06;91.29;99376.09;4871429;29;20050;-81
2023/08/12 02:07:45;;;;;;;0.20;0.20;;;;;;;20.08;91.35;99376.59;4860333;29;20194;-83
2023/08/12 02:10:14;;;;;;;0.20;0.20;;;;;;;20.10;91.05;99388.06;4859818;29;20053;-82
2023/08/12 02:12:41;;;;;;;0.22;0.22;;;;;;;20.08;91.30;99382.09;4859966;29;20080;-83
2023/08/12 02:15:11;;;;;;;0.30;0.30;;;;;;;20.09;90.99;99386.44;4858293;29;20057;-83
2023/08/12 02:17:38;;;;;;;0.20;0.20;;;;;;;20.12;91.19;99394.06;4828017;29;20053;-82
2023/08/12 02:20:07;;;;;;;0.28;0.28;;;;;;;20.11;91.36;99384.22;4843168;29;20101;-81
2023/08/12 02:22:34;;;;;;;0.30;0.30;;;;;;;20.08;91.23;99388.38;4862835;29;20084;-82
2023/08/12 02:25:03;;;;;;;0.20;0.20;;;;;;;20.11;91.23;99389.69;4866014;29;20053;-82
2023/08/12 02:27:30;;;;;;;0.30;0.30;;;;;;;20.08;91.40;99398.53;4859355;29;20045;-81
2023/08/12 02:29:57;;;;;;;0.30;0.30;;;;;;;20.09;91.28;99389.19;4859363;29;20501;-82
2023/08/12 02:32:24;;;;;;;0.30;0.30;;;;;;;20.05;91.13;99383.50;4843256;29;20053;-83
2023/08/12 02:34:51;;;;;;;0.30;0.30;;;;;;;20.09;91.35;99390.00;4859935;29;20059;-82
2023/08/12 02:37:18;;;;;;;0.30;0.30;;;;;;;20.13;91.05;99407.47;4859466;29;20050;-81
2023/08/12 02:39:47;;;;;;;0.30;0.30;;;;;;;20.14;90.96;99391.84;4859442;29;20057;-83
2023/08/12 02:42:14;;;;;;;0.30;0.30;;;;;;;20.13;90.84;99401.19;4858047;29;20076;-82
2023/08/12 02:44:41;;;;;;;0.30;0.30;;;;;;;20.15;91.12;99401.66;4843294;29;20077;-82
2023/08/12 02:47:08;;;;;;;0.20;0.20;;;;;;;20.20;91.20;99403.53;4859340;29;20053;-81
2023/08/12 02:49:36;;;;;;;0.20;0.20;;;;;;;20.24;90.41;99408.13;4842712;29;20577;-81
2023/08/12 02:52:03;;;;;;;0.20;0.20;;;;;;;20.27;90.10;99404.78;4842600;29;20362;-84
2023/08/12 02:54:30;;;;;;;0.30;0.30;;;;;;;20.29;89.96;99404.47;4827465;29;20091;-82
2023/08/12 02:56:57;;;;;;;0.20;0.20;;;;;;;20.29;89.36;99397.06;4859017;29;20050;-81
2023/08/12 02:59:25;;;;;;;0.30;0.30;;;;;;;20.33;88.93;99392.63;4842176;29;20133;-81
2023/08/12 03:01:52;;;;;;;0.30;0.30;;;;;;;20.37;88.74;99386.53;4842184;29;20049;-82
2023/08/12 03:04:20;;;;;;;0.28;0.28;;;;;;;20.39;88.28;99387.88;4826952;29;20054;-82
2023/08/12 03:06:47;;;;;;;0.30;0.30;;;;;;;20.39;88.08;99387.88;4858934;29;20053;-82
2023/08/12 03:09:14;;;;;;;0.20;0.20;;;;;;;20.43;87.83;99386.13;4842220;29;20050;-81
2023/08/12 03:11:44;;;;;;;0.20;0.20;;;;;;;20.40;87.63;99367.56;4842025;29;20152;-82
2023/08/12 03:14:12;;;;;;;0.30;0.30;;;;;;;20.44;87.69;99367.78;4840653;29;20053;-83
2023/08/12 03:16:39;;;;;;;0.30;0.30;;;;;;;20.42;87.56;99372.75;4826413;29;20053;-83
2023/08/12 03:19:07;;;;;;;0.20;0.20;;;;;;;20.42;86.79;99359.03;4842481;29;20485;-83
2023/08/12 03:21:34;;;;;;;0.30;0.30;;;;;;;20.45;86.99;99359.25;4842076;29;20049;-83
2023/08/12 03:24:01;;;;;;;0.30;0.30;;;;;;;20.47;87.09;99359.75;4858951;29;20073;-81
2023/08/12 03:26:29;;;;;;;0.30;0.30;;;;;;;20.45;87.12;99348.28;4841944;29;20474;-83
2023/08/12 03:28:57;;;;;;;0.30;0.30;;;;;;;20.43;87.38;99355.19;4842121;29;20077;-83
2023/08/12 03:31:26;;;;;;;0.30;0.30;;;;;;;20.42;87.06;99362.59;4841668;29;20056;-82
2023/08/12 03:33:53;;;;;;;0.30;0.30;;;;;;;20.43;86.83;99357.91;4858637;29;20450;-82
2023/08/12 03:36:21;;;;;;;0.30;0.30;;;;;;;20.41;87.03;99350.00;4841921;29;20049;-82
2023/08/12 03:38:48;;;;;;;0.30;0.30;;;;;;;20.45;87.27;99358.44;4841830;29;20062;-82
2023/08/12 03:41:19;;;;;;;0.30;0.30;;;;;;;20.46;86.75;99354.56;4841639;29;20600;-82
2023/08/12 03:43:47;;;;;;;0.30;0.30;;;;;;;20.44;86.81;99352.16;4841874;29;20451;-84
2023/08/12 03:46:17;;;;;;;0.30;0.30;;;;;;;20.47;86.72;99356.22;4841727;29;20125;-82
2023/08/12 03:48:45;;;;;;;0.30;0.30;;;;;;;20.39;86.72;99346.75;4841833;29;20432;-81
2023/08/12 03:51:12;;;;;;;0.30;0.30;;;;;;;20.41;86.49;99357.41;4841407;29;20109;-82
2023/08/12 03:53:39;;;;;;;0.30;0.30;;;;;;;20.42;86.32;99370.00;4826611;29;20424;-82
2023/08/12 03:56:06;;;;;;;0.20;0.20;;;;;;;20.41;86.41;99374.69;4841799;29;20076;-82
2023/08/12 03:58:34;;;;;;;0.20;0.20;;;;;;;20.42;86.62;99383.72;4841741;29;20117;-82
2023/08/12 04:01:02;;;;;;;0.20;0.20;;;;;;;20.42;86.83;99376.28;4826835;29;20049;-82
2023/08/12 04:03:30;;;;;;;0.20;0.20;;;;;;;20.40;86.82;99369.50;4858233;29;20518;-81
2023/08/12 04:05:57;;;;;;;0.20;0.20;;;;;;;20.30;87.23;99345.81;4841314;29;20053;-82
2023/08/12 04:08:25;;;;;;;0.20;0.20;;;;;;;20.19;87.30;99369.84;4841223;29;20057;-83
2023/08/12 04:10:52;;;;;;;0.30;0.30;;;;;;;20.24;87.16;99402.63;4841694;29;20129;-82
2023/08/12 04:13:19;;;;;;;0.30;0.30;;;;;;;20.33;86.01;99394.53;4857942;29;20510;-82
2023/08/12 04:15:50;;;;;;;0.30;0.30;;;;;;;20.36;84.97;99404.91;4841683;29;20057;-83
2023/08/12 04:18:18;;;;;;;0.30;0.30;;;;;;;20.37;84.24;99379.13;4841071;29;20085;-81
2023/08/12 04:20:46;;;;;;;0.30;0.30;;;;;;;20.43;83.57;99377.91;4841437;29;20118;-83
2023/08/12 04:23:14;;;;;;;0.30;0.30;;;;;;;20.44;83.30;99379.56;4826524;29;20049;-83
2023/08/12 04:25:46;;;;;;;0.30;0.30;;;;;;;20.46;83.19;99374.59;4845087;29;20057;-82
2023/08/12 04:28:14;;;;;;;0.20;0.20;;;;;;;20.52;83.08;99380.78;4844807;29;20054;-83
2023/08/12 04:30:46;;;;;;;0.30;0.30;;;;;;;20.58;82.62;99385.09;4844671;29;20058;-83
2023/08/12 04:33:15;;;;;;;0.30;0.30;;;;;;;20.59;81.98;99380.44;4844716;29;20132;-82
2023/08/12 04:35:43;;;;;;;0.30;0.30;;;;;;;20.62;81.50;99391.59;4829802;29;20101;-82
2023/08/12 04:38:12;;;;;;;0.30;0.30;;;;;;;20.61;81.69;99390.00;4844712;29;20049;-83
2023/08/12 04:40:41;;;;;;;0.20;0.20;;;;;;;20.66;81.79;99392.66;4845521;29;20152;-82
2023/08/12 04:43:09;;;;;;;0.30;0.30;;;;;;;20.61;81.95;99398.22;4845196;29;20053;-81
2023/08/12 04:45:38;;;;;;;0.30;0.30;;;;;;;20.58;82.02;99396.06;4847910;29;20057;-83
2023/08/12 04:48:08;;;;;;;0.20;0.20;;;;;;;20.53;82.13;99405.19;4870256;29;20060;-83
2023/08/12 04:50:36;;;;;;;0.30;0.30;;;;;;;20.51;81.77;99392.88;4861403;29;20064;-82
2023/08/12 04:53:03;;;;;;;0.20;0.20;;;;;;;20.50;80.86;99391.25;4844649;29;20493;-82
2023/08/12 04:55:31;;;;;;;0.20;0.20;;;;;;;20.48;80.09;99405.22;4844163;29;20069;-83
2023/08/12 04:58:05;;;;;;;0.20;0.20;;;;;;;20.48;79.64;99409.91;4844315;29;20049;-82
2023/08/12 05:00:33;;;;;;;0.25;0.25;;;;;;;20.49;78.15;99403.34;4844376;29;20053;-82
2023/08/12 05:03:00;;;;;;;0.25;0.25;;;;;;;20.51;77.64;99390.16;4829685;29;20077;-82
2023/08/12 05:05:28;;;;;;;0.20;0.20;;;;;;;20.49;78.18;99382.22;4847782;29;20045;-82
2023/08/12 05:08:00;;;;;;;0.20;0.20;;;;;;;20.50;78.12;99364.63;4858447;29;20057;-83
2023/08/12 05:10:29;;;;;;;0.20;0.20;;;;;;;20.42;78.50;99343.41;4844317;29;20057;-83
2023/08/12 05:12:57;;;;;;;0.30;0.30;;;;;;;20.44;78.64;99335.69;4844235;29;20402;-82
2023/08/12 05:15:27;;;;;;;0.20;0.20;;;;;;;20.39;78.44;99333.06;4843844;29;20045;-83
2023/08/12 05:17:57;;;;;;;0.30;0.30;;;;;;;20.35;78.81;99321.03;4860911;29;20062;-82
2023/08/12 05:20:30;;;;;;;0.20;0.20;;;;;;;20.35;78.75;99321.84;4843941;29;20061;-82
2023/08/12 05:22:58;;;;;;;0.30;0.30;;;;;;;20.22;78.96;99300.72;4860801;29;20057;-83
2023/08/12 05:25:27;;;;;;;0.30;0.30;;;;;;;20.29;78.76;99308.56;4843616;29;20136;-84
2023/08/12 05:27:56;;;;;;;0.30;0.30;;;;;;;20.25;78.63;99308.34;4844047;29;20083;-84
2023/08/12 05:30:23;;;;;;;0.30;0.30;;;;;;;20.25;78.36;99308.34;4860297;29;20081;-82
2023/08/12 05:32:52;;;;;;;0.30;0.30;;;;;;;20.28;78.30;99298.69;4860582;29;20476;-83
2023/08/12 05:35:19;;;;;;;0.30;0.30;;;;;;;20.28;78.01;99302.28;4828580;29;20053;-83
2023/08/12 05:37:46;;;;;;;0.30;0.30;;;;;;;20.28;78.11;99282.25;4843758;29;20057;-83
2023/08/12 05:40:17;;;;;;;0.30;0.30;;;;;;;20.35;77.90;99280.75;4860144;29;20536;-82
2023/08/12 05:42:44;;;;;;;0.30;0.30;;;;;;;20.38;77.81;99279.31;4843623;29;20407;-83
2023/08/12 05:45:11;;;;;;;0.30;0.30;;;;;;;20.40;77.87;99284.53;4860339;29;20062;-84
2023/08/12 05:47:41;;;;;;;0.30;0.30;;;;;;;20.42;77.40;99276.81;4860213;29;20184;-83
2023/08/12 05:50:08;;;;;;;0.20;0.20;;;;;;;20.42;77.10;99272.13;4860165;29;20050;-83
2023/08/12 05:52:38;;;;;;;0.20;0.20;;;;;;;20.43;76.84;99281.16;4859781;29;20065;-83
2023/08/12 05:55:06;;;;;;;0.30;0.30;;;;;;;20.42;76.92;99276.81;4859710;29;20130;-81
2023/08/12 05:57:33;;;;;;;0.30;0.30;;;;;;;20.42;77.29;99277.63;4859866;29;20053;-83
2023/08/12 06:00:01;;;;;;;0.30;0.30;;;;;;;20.43;76.74;99281.16;4860170;29;20088;-83
2023/08/12 06:02:40;;;;;;;0.20;0.20;;;;;;;20.37;76.86;99269.50;4820461;29;20521;-83
2023/08/12 06:05:08;;;;;;;0.22;0.22;;;;;;;20.42;76.88;99283.09;4830643;29;20049;-84
2023/08/12 06:07:38;;;;;;;0.30;0.30;;;;;;;20.45;76.52;99293.44;4835990;29;20046;-81
2023/08/12 06:10:07;;;;;;;0.30;0.30;;;;;;;20.45;76.44;99285.22;4835361;29;20093;-82
2023/08/12 06:12:34;;;;;;;0.30;0.30;;;;;;;20.49;76.19;99289.00;4823858;29;20046;-83
2023/08/12 06:15:05;;;;;;;0.30;0.30;;;;;;;20.52;75.71;99296.63;4830802;29;20427;-82
2023/08/12 06:17:32;;;;;;;0.30;0.30;;;;;;;20.58;74.68;99297.34;4835929;29;20058;-82
2023/08/12 06:19:59;;;;;;;0.20;0.20;;;;;;;20.66;74.32;99293.94;4837464;29;20064;-83
2023/08/12 06:22:29;;;;;;;0.30;0.30;;;;;;;20.75;74.58;99294.81;4841412;29;20058;-85
2023/08/12 06:24:56;;;;;;;0.30;0.30;;;;;;;20.80;74.35;99302.16;4841360;29;20061;-84
2023/08/12 06:27:24;;;;;;;0.30;0.30;;;;;;;20.80;74.38;99301.34;4840228;29;20149;-83
2023/08/12 06:29:54;;;;;;;0.30;0.30;;;;;;;20.80;74.20;99293.09;4823714;29;20053;-82
2023/08/12 06:32:21;;;;;;;0.30;0.30;;;;;;;20.78;73.64;99285.97;4812878;29;20046;-83
2023/08/12 06:34:48;;;;;;;0.30;0.30;;;;;;;20.89;73.66;99285.78;4831247;29;20145;-83
2023/08/12 06:37:15;;;;;;;0.20;0.20;;;;;;;20.91;73.72;99281.59;4817622;29;20091;-83
2023/08/12 06:39:43;;;;;;;0.20;0.20;;;;;;;20.95;72.84;99287.31;4833933;29;20092;-84
2023/08/12 06:42:10;;;;;;;0.20;0.20;;;;;;;21.02;72.19;99268.50;4830988;29;20518;-81
2023/08/12 06:44:38;;;;;;;0.30;0.30;;;;;;;21.11;71.86;99277.63;4811403;29;20107;-82
2023/08/12 06:47:05;;;;;;;0.20;0.20;;;;;;;21.17;70.74;99284.63;4823018;29;20065;-82
2023/08/12 06:49:35;;;;;;;0.30;0.30;;;;;;;21.20;70.16;99281.28;4830338;29;20103;-82
2023/08/12 06:52:02;;;;;;;0.30;0.30;;;;;;;21.29;69.36;99275.84;4798664;29;20149;-82
2023/08/12 06:54:30;;;;;;;0.20;0.20;;;;;;;21.26;69.15;99290.19;4830355;29;20050;-82
2023/08/12 06:56:57;;;;;;;0.20;0.20;;;;;;;21.25;69.04;99282.28;4820526;29;20055;-81
2023/08/12 06:59:24;;;;;;;0.20;0.20;;;;;;;21.23;68.49;99285.31;4836371;29;20510;-82
2023/08/12 07:01:52;;;;;;;0.25;0.25;;;;;;;21.27;68.08;99285.50;4838344;29;20141;-82
2023/08/12 07:04:21;;;;;;;0.20;0.20;;;;;;;21.28;68.44;99276.19;4802440;29;20093;-83
2023/08/12 07:06:50;;;;;;;0.25;0.25;;;;;;;21.35;67.72;99260.91;4830023;29;20165;-83
2023/08/12 07:09:19;;;;;;;0.30;0.30;;;;;;;21.43;66.20;99256.63;4844489;29;20109;-84
2023/08/12 07:11:46;;;;;;;0.30;0.30;;;;;;;21.63;65.74;99260.84;4836119;29;20077;-83
2023/08/12 07:14:15;;;;;;;0.30;0.30;;;;;;;21.84;65.00;99261.94;4839886;29;20049;-82
2023/08/12 07:16:42;;;;;;;0.30;0.30;;;;;;;22.02;64.85;99268.38;4840182;29;20111;-83
2023/08/12 07:19:09;;;;;;;0.30;0.30;;;;;;;22.14;64.25;99264.25;4839990;29;20103;-81
2023/08/12 07:21:37;;;;;;;0.30;0.30;;;;;;;22.10;64.08;99265.97;4839810;29;20507;-83
2023/08/12 07:24:08;;;;;;;0.30;0.30;;;;;;;22.05;64.66;99266.91;4839917;29;20046;-83
2023/08/12 07:26:35;;;;;;;0.20;0.20;;;;;;;21.90;65.65;99253.56;4823951;29;20045;-81
2023/08/12 07:29:02;;;;;;;0.20;0.20;;;;;;;21.97;65.51;99257.50;4823929;29;20114;-83
2023/08/12 07:31:29;;;;;;;0.20;0.20;;;;;;;21.94;65.02;99266.38;4823608;29;20061;-83
2023/08/12 07:33:57;;;;;;;0.30;0.30;;;;;;;21.91;65.27;99272.50;4840208;29;20050;-83
2023/08/12 07:36:27;;;;;;;0.30;0.30;;;;;;;21.92;64.80;99265.88;4823709;29;20053;-82
2023/08/12 07:38:54;;;;;;;0.20;0.20;;;;;;;21.93;65.08;99275.75;4823900;29;20046;-83
2023/08/12 07:41:21;;;;;;;0.20;0.20;;;;;;;21.98;64.63;99281.13;4839872;29;20091;-83
2023/08/12 07:43:54;;;;;;;0.20;0.20;;;;;;;22.04;64.40;99293.59;4839829;29;20080;-83
2023/08/12 07:46:22;;;;;;;0.20;0.20;;;;;;;21.91;64.15;99283.50;4839820;29;20469;-83
2023/08/12 07:48:53;;;;;;;0.20;0.20;;;;;;;21.99;63.39;99312.97;4840243;29;20054;-82
2023/08/12 07:51:27;;;;;;;0.20;0.20;;;;;;;21.94;64.65;99312.28;4839628;29;20143;-83
2023/08/12 07:54:00;;;;;;;0.20;0.20;;;;;;;21.83;65.82;99303.47;4839834;29;20149;-83
2023/08/12 07:56:31;;;;;;;;;;;;;;;21.78;66.21;99296.16;4839947;29;20434;-82
2023/08/12 07:59:07;;;;;;;0.30;0.30;;;;;;;21.71;66.86;99278.50;4841480;29;20415;-83
2023/08/12 08:01:37;;;;;;;0.20;0.20;;;;;;;21.72;67.48;99288.34;4843036;29;20514;-83
2023/08/12 08:04:05;;;;;;;0.30;0.30;;;;;;;21.62;68.21;99262.78;4827309;29;20052;-83
2023/08/12 08:06:32;;;;;;;0.30;0.30;;;;;;;21.70;69.01;99282.34;4827406;29;20054;-82
2023/08/12 08:09:03;;;;;;;0.30;0.30;;;;;;;21.67;69.24;99267.31;4832850;29;20079;-83
2023/08/12 08:11:37;;;;;;;0.30;0.30;;;;;;;21.74;69.58;99264.94;4850128;29;20054;-83
2023/08/12 08:14:10;;;;;;;0.30;0.30;;;;;;;21.72;70.50;99255.41;4843630;29;20156;-82
2023/08/12 08:16:40;;;;;;;0.30;0.30;;;;;;;21.74;70.31;99253.16;4827103;29;20057;-83
2023/08/12 08:19:09;;;;;;;0.30;0.30;;;;;;;21.72;70.67;99241.66;4826906;29;20120;-83
2023/08/12 08:21:42;;;;;;;0.30;0.30;;;;;;;21.80;70.75;99266.47;4811382;29;20085;-84
2023/08/12 08:24:12;;;;;;;0.30;0.30;;;;;;;21.80;70.95;99276.63;4843369;29;20061;-82
2023/08/12 08:26:45;;;;;;;0.30;0.30;;;;;;;21.70;71.45;99288.69;4812079;29;20061;-82
2023/08/12 08:29:15;;;;;;;0.30;0.30;;;;;;;21.69;70.95;99327.44;4843405;29;20050;-83
2023/08/12 08:31:47;;;;;;;0.20;0.20;;;;;;;21.56;71.12;99324.41;4842359;29;20061;-84
2023/08/12 08:34:16;;;;;;;0.28;0.28;;;;;;;21.50;71.66;99320.19;4843482;29;20421;-83
2023/08/12 08:36:43;;;;;;;0.30;0.30;;;;;;;21.50;71.45;99327.59;4843035;29;20196;-82
2023/08/12 08:39:10;;;;;;;0.30;0.30;;;;;;;21.52;71.37;99317.94;4843198;29;20132;-82
2023/08/12 08:44:33;;;;;;;0.20;0.20;;;;;;;21.63;71.25;99322.06;4843370;29;20053;-83
2023/08/12 08:47:01;;;;;;;0.20;0.20;;;;;;;21.68;71.36;99298.34;4811529;29;20050;-83
2023/08/12 08:49:31;;;;;;;0.20;0.20;;;;;;;21.72;71.15;99302.09;4826577;29;20074;-83
2023/08/12 08:51:59;;;;;;;0.20;0.20;;;;;;;21.75;70.75;99293.22;4810896;29;20054;-83
2023/08/12 08:54:27;;;;;;;0.30;0.30;;;;;;;21.82;71.12;99269.69;4826257;29;20053;-84
2023/08/12 08:56:57;;;;;;;0.20;0.20;;;;;;;21.86;71.20;99259.69;4825795;29;20080;-84
2023/08/12 08:59:31;;;;;;;0.20;0.20;;;;;;;21.78;70.72;99259.66;4842436;29;20054;-82
2023/08/12 09:02:19;;;;;;;0.20;0.20;;;;;;;21.85;71.20;99277.31;4842817;29;20064;-83
2023/08/12 09:04:46;;;;;;;0.20;0.20;;;;;;;21.91;71.18;99282.69;4842714;29;20050;-83
2023/08/12 09:07:23;;;;;;;0.20;0.20;;;;;;;21.99;71.39;99274.50;4842340;29;20065;-82
2023/08/12 09:09:52;;;;;;;0.30;0.30;;;;;;;22.08;71.72;99269.88;4827372;29;20536;-84
2023/08/12 09:12:22;;;;;;;0.20;0.20;;;;;;;22.08;71.09;99267.13;4828840;29;20591;-82
2023/08/12 09:14:49;;;;;;;0.20;0.20;;;;;;;22.02;71.16;99284.03;4861383;29;20109;-83
2023/08/12 09:17:17;;;;;;;0.20;0.20;;;;;;;21.83;70.37;99292.50;4860498;29;20045;-83
2023/08/12 09:19:44;;;;;;;0.20;0.20;;;;;;;21.65;71.12;99297.03;4860480;29;20177;-82
2023/08/12 09:22:12;;;;;;;0.30;0.30;;;;;;;21.53;70.46;99319.56;4844549;29;20505;-83
2023/08/12 09:24:43;;;;;;;0.30;0.30;;;;;;;21.57;70.72;99330.72;4860848;29;20053;-83
2023/08/12 09:27:10;;;;;;;0.20;0.20;;;;;;;21.55;70.69;99333.78;4844576;29;20060;-82
2023/08/12 09:29:37;;;;;;;0.20;0.20;;;;;;;21.48;70.06;99333.41;4860558;29;20050;-82
2023/08/12 09:32:20;;;;;;;0.20;0.20;;;;;;;21.44;69.82;99324.13;4862652;29;20049;-83
2023/08/12 09:34:52;;;;;;;0.20;0.20;;;;;;;21.41;69.52;99322.81;4869430;29;20094;-83
2023/08/12 09:37:41;;;;;;;0.20;0.20;;;;;;;21.43;70.15;99314.28;4860321;29;20077;-83
2023/08/12 09:40:11;;;;;;;0.30;0.30;;;;;;;21.30;69.36;99310.44;4828627;29;20157;-81
2023/08/12 09:42:45;;;;;;;0.30;0.30;;;;;;;21.30;69.48;99306.88;4843535;29;20148;-83
2023/08/12 09:45:20;;;;;;;0.20;0.20;;;;;;;21.23;70.03;99298.25;4860154;29;20076;-82
2023/08/12 09:47:47;;;;;;;0.25;0.25;;;;;;;21.18;70.25;99294.47;4843963;29;20061;-81
2023/08/12 09:50:15;;;;;;;0.20;0.20;;;;;;;21.15;71.31;99284.13;4860149;29;20514;-83
2023/08/12 09:52:44;;;;;;;0.20;0.20;;;;;;;21.09;72.15;99271.66;4860055;29;20160;-84
2023/08/12 09:55:11;;;;;;;0.30;0.30;;;;;;;21.05;72.09;99264.34;4860067;29;20505;-82
2023/08/12 09:57:44;;;;;;;0.30;0.30;;;;;;;21.07;71.43;99253.88;4856822;29;20064;-82
2023/08/12 10:00:19;;;;;;;0.30;0.30;;;;;;;21.08;71.62;99252.75;4823227;29;20061;-88
2023/08/12 10:02:47;;;;;;;0.30;0.30;;;;;;;21.19;71.40;99262.34;4824518;29;20057;-87
2023/08/12 10:05:28;;;;;;;0.28;0.28;;;;;;;21.24;71.34;99255.94;4824903;29;20832;-86
2023/08/12 10:07:56;;;;;;;0.20;0.20;;;;;;;21.15;72.20;99262.16;4806770;29;20081;-87
2023/08/12 10:10:26;;;;;;;0.20;0.20;;;;;;;21.03;73.13;99252.84;4811200;29;20061;-86
2023/08/12 10:12:55;;;;;;;0.20;0.20;;;;;;;20.84;74.17;99240.09;4834972;29;20578;-85
2023/08/12 10:15:25;;;;;;;0.22;0.22;;;;;;;20.82;75.01;99249.75;4829589;29;20506;-90
2023/08/12 10:17:53;;;;;;;0.20;0.20;;;;;;;20.83;75.33;99256.84;4841651;29;20175;-85
2023/08/12 10:20:25;;;;;;;0.20;0.20;;;;;;;20.88;75.85;99267.69;4823715;29;20046;-84
2023/08/12 10:22:58;;;;;;;0.25;0.25;;;;;;;20.91;76.43;99278.06;4836969;29;20499;-83
2023/08/12 10:25:34;;;;;;;0.30;0.30;;;;;;;20.88;76.83;99267.69;4824471;29;20149;-82
2023/08/12 10:28:03;;;;;;;0.30;0.30;;;;;;;20.88;76.87;99276.72;4824831;29;20050;-82
2023/08/12 10:30:34;;;;;;;0.30;0.30;;;;;;;20.99;76.65;99288.34;4822625;29;20111;-83
2023/08/12 10:33:01;;;;;;;0.30;0.30;;;;;;;21.10;76.13;99289.72;4822807;29;20061;-83
2023/08/12 10:35:48;;;;;;;0.30;0.30;;;;;;;21.12;75.86;99279.25;4832375;29;20058;-82
2023/08/12 10:38:20;;;;;;;0.30;0.30;;;;;;;21.25;75.79;99296.81;4825010;29;20123;-82
2023/08/12 10:40:50;;;;;;;0.25;0.25;;;;;;;21.21;75.88;99271.91;4840717;29;20647;-83
2023/08/12 10:43:17;;;;;;;0.20;0.20;;;;;;;21.17;76.56;99286.56;4826609;29;20054;-83
2023/08/12 10:45:54;;;;;;;0.30;0.30;;;;;;;21.13;76.51;99275.38;4829159;29;20061;-83
2023/08/12 10:48:24;;;;;;;0.20;0.20;;;;;;;21.06;76.44;99279.66;4815707;29;20145;-82
2023/08/12 10:50:54;;;;;;;0.20;0.20;;;;;;;20.95;76.28;99268.09;4835098;29;20102;-82
2023/08/12 10:53:33;;;;;;;0.20;0.20;;;;;;;20.83;75.95;99284.25;4835853;29;20061;-85
2023/08/12 10:56:03;;;;;;;0.20;0.20;;;;;;;20.77;75.95;99306.31;4821337;29;20050;-84
2023/08/12 10:58:35;;;;;;;0.30;0.30;;;;;;;20.69;75.86;99328.16;4831372;29;20046;-81
2023/08/12 11:01:03;;;;;;;0.20;0.20;;;;;;;20.55;76.06;99317.97;4804958;29;20061;-82
2023/08/12 11:03:33;;;;;;;0.30;0.30;;;;;;;20.46;76.75;99349.09;4830281;29;20061;-82
2023/08/12 11:06:04;;;;;;;0.30;0.30;;;;;;;20.18;77.96;99339.97;4825368;29;20053;-83
2023/08/12 11:08:36;;;;;;;0.30;0.30;;;;;;;20.21;78.60;99356.66;4829718;29;20054;-82
2023/08/12 11:11:19;;;;;;;0.30;0.30;;;;;;;20.03;80.17;99360.25;4839302;29;20072;-84
2023/08/12 11:13:54;;;;;;;0.30;0.30;;;;;;;19.70;82.16;99350.06;4827040;29;20054;-83
2023/08/12 11:16:40;;;;;;;0.30;0.30;;;;;;;19.51;84.31;99357.41;4832212;29;20066;-83
2023/08/12 11:19:07;;;;;;;0.30;0.30;;;;;;;19.36;85.43;99350.22;4823246;29;20050;-83
2023/08/12 11:21:58;;;;;;;0.30;0.30;;;;;;;19.28;86.78;99342.66;4834069;29;20176;-82
2023/08/12 11:24:25;;;;;;;0.30;0.30;;;;;;;19.17;87.77;99336.53;4829979;29;20054;-82
2023/08/12 11:26:56;;;;;;;0.30;0.30;;;;;;;19.14;88.67;99341.75;4806886;29;20152;-84
2023/08/12 11:29:26;;;;;;;0.30;0.30;;;;;;;19.05;89.51;99325.19;4806304;29;20116;-83
2023/08/12 11:31:55;;;;;;;0.30;0.30;;;;;;;19.07;90.12;99324.91;4824839;29;20448;-83
2023/08/12 11:34:23;;;;;;;0.30;0.30;;;;;;;18.97;90.89;99326.66;4829816;29;20074;-84
2023/08/12 11:37:06;;;;;;;0.30;0.30;;;;;;;18.91;91.96;99311.38;4805671;29;20057;-83
2023/08/12 11:39:34;;;;;;;0.32;0.32;;;;;;;18.96;92.41;99316.78;4827082;29;20149;-84
2023/08/12 11:42:01;;;;;;;0.30;0.30;;;;;;;18.97;93.01;99302.03;4836585;29;20058;-83
2023/08/12 11:44:30;;;;;;;0.30;0.30;;;;;;;18.92;93.67;99295.81;4839535;29;20571;-82
2023/08/12 11:47:00;;;;;;;0.30;0.30;;;;;;;18.90;94.39;99293.38;4840200;29;20079;-83